createdAt,value
2022-10-10T00:02:06.297Z,9.80
2022-10-10T00:04:32.997Z,9.80
2022-10-10T00:06:59.656Z,9.70
2022-10-10T00:09:26.309Z,9.80
2022-10-10T00:11:52.972Z,9.70
2022-10-10T00:14:19.689Z,9.80
2022-10-10T00:16:46.346Z,9.70
2022-10-10T00:19:13.037Z,9.70
2022-10-10T00:21:39.673Z,9.70
2022-10-10T00:24:06.588Z,9.70
2022-10-10T00:26:33.307Z,9.60
2022-10-10T00:29:00.150Z,9.60
2022-10-10T00:31:26.871Z,9.60
2022-10-10T00:33:53.541Z,9.50
2022-10-10T00:36:21.342Z,9.50
2022-10-10T00:38:48.186Z,9.50
2022-10-10T00:41:14.968Z,9.50
2022-10-10T00:43:41.732Z,9.40
2022-10-10T00:46:08.621Z,9.40
2022-10-10T00:48:45.060Z,9.50
2022-10-10T00:51:18.625Z,9.40
2022-10-10T00:53:51.549Z,9.30
2022-10-10T00:56:26.634Z,9.30
2022-10-10T00:58:56.269Z,9.30
2022-10-10T01:01:22.973Z,9.30
2022-10-10T01:03:49.720Z,9.30
2022-10-10T01:06:16.471Z,9.30
2022-10-10T01:08:43.384Z,9.20
2022-10-10T01:11:16.099Z,9.20
2022-10-10T01:14:07.721Z,9.20
2022-10-10T01:16:54.461Z,9.20
2022-10-10T01:19:34.892Z,9.20
2022-10-10T01:22:30.792Z,9.00
2022-10-10T01:25:22.111Z,9.10
2022-10-10T01:27:57.498Z,9.00
2022-10-10T01:30:25.153Z,9.10
2022-10-10T01:32:53.909Z,9.00
2022-10-10T01:36:02.400Z,9.00
2022-10-10T01:38:35.115Z,8.90
2022-10-10T01:41:05.016Z,8.90
2022-10-10T01:43:31.926Z,8.90
2022-10-10T01:45:58.567Z,8.90
2022-10-10T01:48:30.018Z,8.90
2022-10-10T01:51:24.250Z,8.80
2022-10-10T01:54:28.991Z,8.70
2022-10-10T01:57:03.944Z,8.80
2022-10-10T02:00:09.555Z,8.80
2022-10-10T02:02:39.263Z,8.70
2022-10-10T02:05:35.104Z,8.70
2022-10-10T02:08:10.745Z,8.70
2022-10-10T02:10:44.946Z,8.70
2022-10-10T02:13:12.856Z,8.70
2022-10-10T02:15:45.763Z,8.60
2022-10-10T02:18:16.200Z,8.60
2022-10-10T02:20:45.057Z,8.60
2022-10-10T02:23:15.375Z,8.60
2022-10-10T02:25:45.505Z,8.50
2022-10-10T02:28:25.549Z,8.40
2022-10-10T02:30:56.586Z,8.50
2022-10-10T02:33:37.002Z,8.50
2022-10-10T02:36:27.836Z,8.40
2022-10-10T02:38:56.601Z,8.30
2022-10-10T02:41:24.373Z,8.20
2022-10-10T02:43:52.530Z,8.10
2022-10-10T02:46:19.910Z,8.20
2022-10-10T02:48:46.942Z,8.30
2022-10-10T02:51:15.721Z,8.30
2022-10-10T02:53:42.446Z,8.30
2022-10-10T02:56:09.305Z,8.40
2022-10-10T02:58:35.981Z,8.50
2022-10-10T03:01:02.820Z,8.50
2022-10-10T03:03:29.576Z,8.50
2022-10-10T03:05:56.385Z,8.50
2022-10-10T03:08:23.031Z,8.50
2022-10-10T03:10:58.646Z,8.60
2022-10-10T03:13:25.743Z,8.60
2022-10-10T03:15:52.632Z,8.60
2022-10-10T03:18:19.726Z,8.60
2022-10-10T03:20:56.612Z,8.60
2022-10-10T03:23:24.788Z,8.60
2022-10-10T03:25:51.476Z,8.60
2022-10-10T03:28:18.457Z,8.60
2022-10-10T03:30:46.108Z,8.60
2022-10-10T03:33:12.791Z,8.50
2022-10-10T03:35:40.070Z,8.40
2022-10-10T03:38:07.055Z,8.40
2022-10-10T03:40:34.299Z,8.40
2022-10-10T03:43:00.972Z,8.40
2022-10-10T03:45:27.784Z,8.40
2022-10-10T03:47:54.463Z,8.40
2022-10-10T03:50:21.182Z,8.30
2022-10-10T03:52:48.071Z,8.20
2022-10-10T03:55:15.054Z,8.20
2022-10-10T03:57:41.736Z,8.20
2022-10-10T04:00:09.515Z,8.20
2022-10-10T04:02:36.348Z,8.10
2022-10-10T04:05:03.486Z,8.10
2022-10-10T04:07:30.599Z,8.00
2022-10-10T04:09:57.370Z,8.00
2022-10-10T04:12:24.062Z,8.00
2022-10-10T04:14:50.744Z,8.10
2022-10-10T04:17:17.486Z,8.10
2022-10-10T04:19:44.160Z,8.10
2022-10-10T04:22:11.339Z,8.10
2022-10-10T04:24:38.292Z,8.00
2022-10-10T04:27:04.968Z,8.00
2022-10-10T04:29:31.708Z,7.90
2022-10-10T04:31:58.380Z,7.90
2022-10-10T04:34:25.183Z,7.90
2022-10-10T04:36:51.881Z,7.90
2022-10-10T04:39:18.679Z,7.80
2022-10-10T04:41:49.981Z,7.80
2022-10-10T04:44:19.735Z,7.90
2022-10-10T04:46:46.403Z,7.90
2022-10-10T04:49:13.094Z,8.00
2022-10-10T04:51:39.760Z,8.00
2022-10-10T04:54:06.635Z,7.90
2022-10-10T04:56:33.323Z,7.90
2022-10-10T04:58:59.991Z,7.90
2022-10-10T05:01:26.796Z,7.90
2022-10-10T05:03:54.013Z,7.90
2022-10-10T05:06:20.693Z,7.80
2022-10-10T05:08:47.353Z,7.80
2022-10-10T05:11:14.162Z,7.60
2022-10-10T05:13:40.864Z,7.70
2022-10-10T05:16:07.590Z,7.70
2022-10-10T05:18:37.397Z,7.80
2022-10-10T05:21:07.378Z,7.80
2022-10-10T05:23:35.436Z,7.70
2022-10-10T05:26:02.103Z,7.70
2022-10-10T05:28:28.856Z,7.70
2022-10-10T05:30:55.674Z,7.70
2022-10-10T05:33:22.496Z,7.70
2022-10-10T05:35:49.352Z,7.70
2022-10-10T05:38:16.015Z,7.70
2022-10-10T05:40:42.951Z,7.60
2022-10-10T05:43:10.043Z,7.40
2022-10-10T05:45:36.783Z,7.40
2022-10-10T05:48:03.428Z,7.50
2022-10-10T05:50:34.169Z,7.50
2022-10-10T05:53:01.384Z,7.50
2022-10-10T05:55:28.523Z,7.50
2022-10-10T05:57:55.184Z,7.50
2022-10-10T06:00:21.977Z,7.50
2022-10-10T06:02:49.121Z,7.40
2022-10-10T06:05:16.479Z,7.40
2022-10-10T06:08:03.559Z,7.40
2022-10-10T06:10:30.005Z,7.50
2022-10-10T06:12:56.681Z,7.50
2022-10-10T06:19:14.737Z,7.70
2022-10-10T06:21:41.834Z,7.70
2022-10-10T06:24:10.617Z,7.70
2022-10-10T06:26:37.322Z,7.70
2022-10-10T06:29:05.082Z,7.70
2022-10-10T06:31:31.743Z,7.90
2022-10-10T06:33:58.423Z,7.90
2022-10-10T06:36:25.085Z,7.90
2022-10-10T06:38:51.813Z,8.00
2022-10-10T06:41:18.460Z,8.10
2022-10-10T06:43:45.122Z,8.20
2022-10-10T06:46:11.876Z,8.30
2022-10-10T06:48:38.558Z,8.30
2022-10-10T06:51:13.355Z,8.40
2022-10-10T06:53:40.425Z,8.50
2022-10-10T06:56:07.498Z,8.40
2022-10-10T06:58:34.373Z,8.60
2022-10-10T07:01:04.129Z,8.50
2022-10-10T07:03:31.456Z,8.50
2022-10-10T07:06:01.357Z,8.60
2022-10-10T07:08:29.298Z,8.60
2022-10-10T07:10:57.025Z,8.70
2022-10-10T07:13:23.705Z,8.70
2022-10-10T07:15:50.355Z,8.80
2022-10-10T07:18:20.875Z,8.90
2022-10-10T07:20:47.608Z,8.90
2022-10-10T07:23:14.871Z,9.00
2022-10-10T07:25:42.951Z,9.00
2022-10-10T07:28:10.599Z,9.00
2022-10-10T07:30:44.656Z,9.10
2022-10-10T07:33:12.835Z,9.30
2022-10-10T07:35:39.786Z,9.30
2022-10-10T07:38:06.931Z,9.30
2022-10-10T07:40:33.660Z,9.40
2022-10-10T07:43:00.438Z,9.60
2022-10-10T07:45:27.177Z,9.60
2022-10-10T07:47:54.337Z,9.60
2022-10-10T07:50:21.243Z,9.60
2022-10-10T07:52:47.921Z,9.70
2022-10-10T07:55:14.574Z,9.60
2022-10-10T07:57:41.195Z,10.30
2022-10-10T08:00:09.946Z,11.00
2022-10-10T08:02:37.029Z,11.40
2022-10-10T08:05:03.919Z,11.40
2022-10-10T08:07:30.744Z,11.60
2022-10-10T08:09:57.577Z,11.80
2022-10-10T08:12:24.267Z,11.90
2022-10-10T08:14:50.956Z,11.90
2022-10-10T08:17:17.694Z,11.30
2022-10-10T08:19:44.499Z,11.00
2022-10-10T08:22:11.240Z,10.90
2022-10-10T08:24:37.884Z,10.90
2022-10-10T08:27:04.560Z,10.80
2022-10-10T08:29:33.021Z,10.80
2022-10-10T08:31:59.665Z,10.70
2022-10-10T08:34:26.339Z,10.80
2022-10-10T08:36:52.995Z,10.90
2022-10-10T08:39:19.645Z,10.90
2022-10-10T08:41:52.616Z,11.00
2022-10-10T08:44:37.736Z,11.00
2022-10-10T08:47:12.752Z,11.00
2022-10-10T08:49:43.317Z,11.10
2022-10-10T08:52:38.621Z,11.10
2022-10-10T08:55:17.199Z,11.10
2022-10-10T08:58:05.528Z,11.20
2022-10-10T09:00:38.676Z,11.20
2022-10-10T09:03:22.416Z,11.30
2022-10-10T09:06:04.113Z,11.20
2022-10-10T09:08:56.955Z,11.20
2022-10-10T09:11:35.624Z,11.40
2022-10-10T09:14:22.072Z,11.50
2022-10-10T09:16:55.731Z,11.50
2022-10-10T09:19:42.565Z,11.60
2022-10-10T09:22:20.015Z,11.70
2022-10-10T09:25:14.237Z,11.80
2022-10-10T09:27:44.229Z,12.00
2022-10-10T09:30:18.064Z,12.20
2022-10-10T09:33:12.541Z,12.50
2022-10-10T09:35:42.084Z,12.80
2022-10-10T09:38:25.359Z,12.70
2022-10-10T09:41:18.537Z,13.00
2022-10-10T09:43:45.218Z,13.40
2022-10-10T09:46:12.048Z,13.50
2022-10-10T09:48:40.746Z,13.70
2022-10-10T09:51:13.816Z,13.80
2022-10-10T09:53:42.065Z,14.00
2022-10-10T09:56:32.981Z,14.10
2022-10-10T09:58:59.686Z,14.30
2022-10-10T10:01:29.185Z,14.50
2022-10-10T10:04:27.624Z,14.50
2022-10-10T10:07:23.709Z,14.80
2022-10-10T10:09:52.873Z,15.20
2022-10-10T10:12:24.380Z,15.10
2022-10-10T10:14:57.541Z,15.20
2022-10-10T10:17:24.773Z,15.60
2022-10-10T10:19:52.261Z,15.60
2022-10-10T10:22:37.205Z,15.70
2022-10-10T10:25:35.338Z,15.90
2022-10-10T10:28:11.104Z,16.30
2022-10-10T10:30:39.783Z,16.40
2022-10-10T10:33:18.301Z,16.60
2022-10-10T10:35:50.435Z,16.80
2022-10-10T10:38:39.116Z,17.10
2022-10-10T10:41:29.974Z,16.90
2022-10-10T10:44:30.387Z,17.00
2022-10-10T10:47:08.229Z,17.10
2022-10-10T10:50:12.221Z,17.20
2022-10-10T10:53:03.200Z,17.60
2022-10-10T10:55:45.466Z,17.80
2022-10-10T10:59:05.002Z,17.70
2022-10-10T11:01:58.035Z,18.00
2022-10-10T11:05:17.267Z,18.00
2022-10-10T11:07:38.715Z,18.40
2022-10-10T11:10:08.603Z,18.30
2022-10-10T11:12:55.046Z,18.40
2022-10-10T11:16:01.255Z,18.50
2022-10-10T11:18:53.307Z,18.80
2022-10-10T11:21:24.744Z,18.70
2022-10-10T11:24:22.296Z,19.10
2022-10-10T11:26:55.982Z,19.20
2022-10-10T11:29:27.271Z,19.30
2022-10-10T11:32:13.877Z,19.60
2022-10-10T11:35:07.007Z,19.60
2022-10-10T11:37:40.313Z,19.80
2022-10-10T11:40:13.622Z,20.00
2022-10-10T11:42:46.269Z,20.20
2022-10-10T11:45:18.139Z,19.90
2022-10-10T11:47:50.814Z,19.80
2022-10-10T11:50:18.200Z,20.00
2022-10-10T11:52:47.923Z,20.20
2022-10-10T11:55:27.376Z,20.50
2022-10-10T11:58:06.017Z,20.60
2022-10-10T12:01:01.549Z,20.80
2022-10-10T12:03:28.418Z,20.70
2022-10-10T12:06:04.709Z,20.30
2022-10-10T12:08:40.281Z,20.10
2022-10-10T12:11:18.061Z,20.60
2022-10-10T12:13:49.070Z,20.70
2022-10-10T12:16:21.340Z,20.70
2022-10-10T12:18:52.437Z,20.70
2022-10-10T12:21:22.831Z,21.00
2022-10-10T12:23:59.595Z,21.50
2022-10-10T12:26:46.208Z,21.50
2022-10-10T12:29:12.901Z,21.70
2022-10-10T12:31:40.240Z,21.50
2022-10-10T12:34:14.412Z,21.70
2022-10-10T12:36:41.030Z,21.70
2022-10-10T12:39:10.934Z,21.60
2022-10-10T12:41:52.663Z,21.80
2022-10-10T12:44:25.933Z,22.10
2022-10-10T12:47:14.443Z,22.20
2022-10-10T12:50:02.452Z,22.20
2022-10-10T12:52:35.106Z,22.10
2022-10-10T12:55:32.585Z,22.20
2022-10-10T12:58:03.048Z,22.00
2022-10-10T13:00:48.620Z,22.10
2022-10-10T13:03:46.969Z,22.10
2022-10-10T13:06:32.417Z,22.10
2022-10-10T13:09:01.246Z,22.20
2022-10-10T13:11:27.896Z,22.20
2022-10-10T13:13:56.613Z,22.50
2022-10-10T13:16:28.705Z,22.70
2022-10-10T13:19:00.315Z,22.60
2022-10-10T13:21:32.423Z,22.50
2022-10-10T13:24:05.027Z,22.70
2022-10-10T13:26:39.242Z,22.50
2022-10-10T13:29:27.078Z,22.80
2022-10-10T13:31:57.624Z,22.90
2022-10-10T13:34:27.991Z,22.70
2022-10-10T13:36:59.558Z,22.90
2022-10-10T13:39:28.341Z,22.90
2022-10-10T13:41:55.867Z,22.80
2022-10-10T13:44:46.682Z,22.90
2022-10-10T13:47:51.072Z,22.90
2022-10-10T13:50:44.737Z,23.10
2022-10-10T13:53:26.778Z,23.10
2022-10-10T13:56:02.057Z,22.90
2022-10-10T13:58:31.833Z,23.00
2022-10-10T14:01:02.725Z,22.80
2022-10-10T14:03:32.291Z,23.00
2022-10-10T14:05:59.377Z,22.70
2022-10-10T14:08:31.109Z,22.90
2022-10-10T14:10:57.907Z,22.90
2022-10-10T14:13:25.604Z,23.00
2022-10-10T14:15:52.570Z,22.70
2022-10-10T14:18:22.429Z,22.50
2022-10-10T14:20:50.706Z,22.40
2022-10-10T14:23:17.793Z,22.50
2022-10-10T14:25:47.758Z,22.60
2022-10-10T14:28:24.670Z,22.50
2022-10-10T14:30:51.587Z,22.50
2022-10-10T14:33:20.094Z,22.50
2022-10-10T14:35:49.192Z,22.40
2022-10-10T14:38:16.256Z,22.30
2022-10-10T14:40:45.279Z,22.20
2022-10-10T14:43:12.130Z,22.20
2022-10-10T14:45:38.975Z,22.20
2022-10-10T14:48:06.268Z,22.10
2022-10-10T14:50:35.349Z,22.00
2022-10-10T14:53:02.196Z,21.90
2022-10-10T14:55:29.006Z,21.80
2022-10-10T14:57:55.681Z,21.80
2022-10-10T15:00:25.151Z,21.60
2022-10-10T15:02:51.895Z,21.60
2022-10-10T15:05:18.802Z,21.40
2022-10-10T15:07:45.862Z,21.40
2022-10-10T15:13:01.153Z,21.20
2022-10-10T15:15:27.956Z,21.10
2022-10-10T15:17:56.456Z,21.10
2022-10-10T15:20:30.428Z,21.00
2022-10-10T15:22:59.021Z,20.70
2022-10-10T15:25:32.372Z,20.80
2022-10-10T15:28:01.125Z,20.70
2022-10-10T15:30:27.882Z,20.70
2022-10-10T15:32:54.512Z,20.70
2022-10-10T15:35:25.049Z,20.50
2022-10-10T15:37:52.544Z,20.50
2022-10-10T15:40:23.296Z,20.40
2022-10-10T15:42:50.577Z,20.30
2022-10-10T15:48:05.735Z,20.20
2022-10-10T15:50:34.372Z,20.00
2022-10-10T15:53:01.082Z,19.90
2022-10-10T15:55:27.917Z,19.90
2022-10-10T15:57:54.556Z,19.70
2022-10-10T15:59:17.882Z,20.20
2022-10-10T16:00:21.332Z,19.70
2022-10-10T16:02:47.974Z,19.60
2022-10-10T16:05:14.800Z,19.50
2022-10-10T16:07:47.746Z,19.60
2022-10-10T16:10:15.676Z,19.50
2022-10-10T16:12:42.551Z,19.30
2022-10-10T16:15:09.597Z,19.10
2022-10-10T16:17:36.269Z,19.00
2022-10-10T16:20:03.555Z,18.90
2022-10-10T16:22:30.207Z,18.70
2022-10-10T16:25:21.256Z,18.50
2022-10-10T16:27:43.579Z,18.50
2022-10-10T16:30:11.346Z,18.30
2022-10-10T16:32:41.961Z,18.10
2022-10-10T16:35:09.939Z,18.00
2022-10-10T16:37:36.627Z,17.90
2022-10-10T16:40:03.507Z,17.80
2022-10-10T16:42:30.162Z,17.70
2022-10-10T16:44:56.897Z,17.60
2022-10-10T16:47:23.540Z,17.50
2022-10-10T16:49:50.169Z,17.40
2022-10-10T16:52:16.828Z,17.30
2022-10-10T16:54:43.530Z,17.30
2022-10-10T16:57:11.984Z,17.10
2022-10-10T16:59:38.889Z,17.10
2022-10-10T17:02:05.535Z,16.90
2022-10-10T17:04:32.271Z,16.80
2022-10-10T17:06:58.931Z,16.80
2022-10-10T17:09:25.614Z,16.70
2022-10-10T17:11:52.275Z,16.70
2022-10-10T17:14:19.508Z,16.60
2022-10-10T17:17:11.059Z,16.60
2022-10-10T17:19:33.636Z,16.60
2022-10-10T17:22:00.480Z,16.60
2022-10-10T17:24:27.232Z,16.50
2022-10-10T17:26:54.074Z,16.50
2022-10-10T17:29:20.717Z,16.40
2022-10-10T17:31:47.380Z,16.30
2022-10-10T17:34:13.994Z,16.20
2022-10-10T17:36:40.755Z,16.00
2022-10-10T17:39:07.703Z,15.90
2022-10-10T17:41:34.609Z,15.90
2022-10-10T17:44:01.326Z,15.70
2022-10-10T17:46:34.843Z,15.60
2022-10-10T17:49:06.641Z,15.60
2022-10-10T17:51:34.422Z,15.50
2022-10-10T17:54:02.123Z,15.50
2022-10-10T17:56:29.035Z,15.50
2022-10-10T17:58:55.848Z,15.40
2022-10-10T18:01:22.824Z,15.30
2022-10-10T18:03:49.858Z,15.30
2022-10-10T18:06:20.603Z,15.30
2022-10-10T18:08:52.944Z,15.30
2022-10-10T18:11:22.489Z,15.30
2022-10-10T18:13:49.279Z,15.30
2022-10-10T18:16:21.486Z,15.30
2022-10-10T18:18:51.654Z,15.30
2022-10-10T18:21:20.947Z,15.30
2022-10-10T18:23:48.460Z,15.20
2022-10-10T18:26:23.177Z,15.10
2022-10-10T18:28:52.620Z,15.10
2022-10-10T18:31:22.331Z,14.90
2022-10-10T18:33:49.200Z,14.90
2022-10-10T18:36:18.683Z,14.80
2022-10-10T18:38:45.594Z,14.80
2022-10-10T18:41:16.565Z,14.80
2022-10-10T18:43:44.652Z,14.80
2022-10-10T18:46:13.527Z,14.80
2022-10-10T18:48:40.268Z,14.80
2022-10-10T18:51:09.861Z,14.70
2022-10-10T18:53:37.951Z,14.70
2022-10-10T18:56:05.440Z,14.70
2022-10-10T18:58:34.457Z,14.70
2022-10-10T19:01:04.092Z,14.70
2022-10-10T19:03:30.971Z,14.60
2022-10-10T19:05:57.741Z,14.60
2022-10-10T19:08:24.623Z,14.60
2022-10-10T19:10:51.632Z,14.50
2022-10-10T19:13:19.237Z,14.40
2022-10-10T19:15:47.176Z,14.50
2022-10-10T19:18:13.816Z,14.60
2022-10-10T19:20:40.585Z,14.60
2022-10-10T19:23:07.351Z,14.50
2022-10-10T19:25:41.750Z,14.60
2022-10-10T19:28:09.284Z,14.50
2022-10-10T19:30:40.096Z,14.50
2022-10-10T19:33:06.847Z,14.50
2022-10-10T19:35:42.488Z,14.50
2022-10-10T19:38:10.561Z,14.40
2022-10-10T19:40:44.458Z,14.60
2022-10-10T19:43:11.787Z,14.60
2022-10-10T19:45:51.368Z,14.60
2022-10-10T19:48:23.430Z,14.60
2022-10-10T19:50:50.739Z,14.60
2022-10-10T19:53:18.697Z,14.60
2022-10-10T19:55:56.506Z,14.60
2022-10-10T19:58:23.261Z,14.50
2022-10-10T20:00:49.991Z,14.60
2022-10-10T20:03:19.223Z,14.60
2022-10-10T20:05:45.970Z,14.60
2022-10-10T20:08:13.225Z,14.60
2022-10-10T20:10:43.660Z,14.70
2022-10-10T20:13:14.783Z,14.80
2022-10-10T20:15:44.072Z,14.80
2022-10-10T20:18:11.797Z,14.60
2022-10-10T20:20:49.746Z,14.60
2022-10-10T20:23:18.642Z,14.60
2022-10-10T20:25:46.304Z,14.60
2022-10-10T20:28:14.843Z,14.60
2022-10-10T20:30:45.123Z,14.50
2022-10-10T20:33:11.808Z,14.60
2022-10-10T20:35:38.471Z,14.50
2022-10-10T20:38:05.201Z,14.50
2022-10-10T20:40:32.140Z,14.60
2022-10-10T20:42:58.812Z,14.50
2022-10-10T20:45:25.468Z,14.50
2022-10-10T20:47:52.097Z,14.60
2022-10-10T20:50:18.909Z,14.60
2022-10-10T20:52:45.583Z,14.50
2022-10-10T20:55:12.271Z,14.60
2022-10-10T20:57:38.918Z,14.50
2022-10-10T21:00:06.450Z,14.50
2022-10-10T21:02:34.324Z,14.40
2022-10-10T21:05:01.007Z,14.40
2022-10-10T21:07:30.807Z,14.40
2022-10-10T21:09:59.036Z,14.40
2022-10-10T21:12:25.814Z,14.50
2022-10-10T21:14:52.984Z,14.50
2022-10-10T21:17:19.672Z,14.60
2022-10-10T21:19:46.312Z,14.50
2022-10-10T21:22:12.988Z,14.40
2022-10-10T21:24:39.640Z,14.40
2022-10-10T21:27:06.323Z,14.50
2022-10-10T21:29:33.067Z,14.50
2022-10-10T21:31:59.749Z,14.50
2022-10-10T21:34:26.427Z,14.50
2022-10-10T21:36:53.210Z,14.50
2022-10-10T21:39:19.885Z,14.50
2022-10-10T21:41:46.594Z,14.40
2022-10-10T21:44:13.498Z,14.40
2022-10-10T21:46:40.158Z,14.50
2022-10-10T21:49:09.063Z,14.40
2022-10-10T21:51:39.556Z,14.40
2022-10-10T21:54:06.986Z,14.40
2022-10-10T21:56:34.069Z,14.40
2022-10-10T21:59:01.572Z,14.40
2022-10-10T22:01:29.426Z,14.50
2022-10-10T22:03:56.424Z,14.40
2022-10-10T22:06:24.384Z,14.40
2022-10-10T22:08:52.668Z,14.40
2022-10-10T22:11:21.912Z,14.30
2022-10-10T22:13:48.727Z,14.30
2022-10-10T22:16:15.771Z,14.20
2022-10-10T22:18:43.057Z,14.20
2022-10-10T22:21:17.102Z,14.20
2022-10-10T22:23:44.959Z,14.20
2022-10-10T22:26:14.602Z,14.20
2022-10-10T22:28:41.610Z,14.10
2022-10-10T22:31:10.279Z,14.10
2022-10-10T22:33:37.495Z,14.10
2022-10-10T22:36:05.741Z,14.10
2022-10-10T22:38:33.078Z,14.20
2022-10-10T22:40:59.841Z,14.20
2022-10-10T22:43:27.300Z,14.10
2022-10-10T22:45:54.476Z,14.10
2022-10-10T22:48:21.353Z,14.00
2022-10-10T22:50:48.094Z,14.00
2022-10-10T22:53:14.767Z,14.00
2022-10-10T22:55:41.546Z,14.10
2022-10-10T22:58:09.062Z,14.10
2022-10-10T23:00:35.784Z,14.10
2022-10-10T23:03:02.526Z,14.20
2022-10-10T23:05:29.195Z,14.10
2022-10-10T23:07:55.854Z,14.10
2022-10-10T23:10:22.573Z,14.10
2022-10-10T23:12:49.234Z,14.00
2022-10-10T23:15:15.949Z,14.00
2022-10-10T23:17:42.649Z,14.00
2022-10-10T23:20:09.890Z,14.00
2022-10-10T23:22:36.587Z,14.00
2022-10-10T23:25:03.543Z,14.00
2022-10-10T23:27:30.218Z,14.00
2022-10-10T23:29:56.958Z,14.00
2022-10-10T23:32:26.802Z,14.00
2022-10-10T23:34:53.624Z,14.00
2022-10-10T23:37:20.360Z,14.00
2022-10-10T23:39:47.105Z,14.00
2022-10-10T23:42:13.862Z,13.90
2022-10-10T23:44:40.526Z,13.90
2022-10-10T23:47:07.211Z,14.00
2022-10-10T23:49:34.000Z,14.00
2022-10-10T23:52:00.655Z,13.90
2022-10-10T23:54:27.325Z,13.80
2022-10-10T23:56:53.986Z,13.90
2022-10-10T23:59:20.678Z,13.90
